Time;durP1;ratioP1;P1;durP2;ratioP2;P2;SDS_P1;SDS_P2;PMS_P1;PMS_P2;Temp;Humidity;BMP_temperature;BMP_pressure;BME280_temperature;BME280_humidity;BME280_pressure;Samples;Min_cycle;Max_cycle;Signal;HPM_P1;HPM_P2
2023/04/30 00:00:01;;;;;;;57.60;2.27;;;;;;;;;;5074750;28;20838;-69
2023/04/30 00:02:28;;;;;;;57.20;2.40;;;;;;;;;;5075251;28;20451;-69
2023/04/30 00:04:56;;;;;;;57.27;2.10;;;;;;;;;;5075037;28;20450;-69
2023/04/30 00:07:23;;;;;;;57.07;2.00;;;;;;;;;;5075224;28;20448;-69
2023/04/30 00:09:50;;;;;;;57.40;2.20;;;;;;;;;;5074682;28;20467;-69
2023/04/30 00:12:18;;;;;;;57.30;2.30;;;;;;;;;;5074907;28;20478;-69
2023/04/30 00:14:45;;;;;;;56.67;2.20;;;;;;;;;;5074741;28;20458;-69
2023/04/30 00:17:13;;;;;;;57.07;2.40;;;;;;;;;;5074917;28;20450;-69
2023/04/30 00:19:40;;;;;;;57.20;2.10;;;;;;;;;;5074594;28;20463;-69
2023/04/30 00:22:07;;;;;;;57.30;2.10;;;;;;;;;;5075002;28;20485;-69
2023/04/30 00:24:34;;;;;;;56.97;2.10;;;;;;;;;;5074657;28;20465;-69
2023/04/30 00:27:01;;;;;;;58.80;3.33;;;;;;;;;;5074724;28;20486;-69
2023/04/30 00:29:29;;;;;;;57.27;2.30;;;;;;;;;;5074007;28;20470;-68
2023/04/30 00:31:57;;;;;;;57.60;2.60;;;;;;;;;;5074674;28;20460;-68
2023/04/30 00:34:24;;;;;;;57.40;2.50;;;;;;;;;;5074395;28;20453;-68
2023/04/30 00:36:51;;;;;;;57.33;2.20;;;;;;;;;;5074527;28;20455;-68
2023/04/30 00:39:18;;;;;;;57.27;2.50;;;;;;;;;;5074139;28;21013;-68
2023/04/30 00:41:45;;;;;;;58.30;2.80;;;;;;;;;;5074402;28;20452;-68
2023/04/30 00:44:13;;;;;;;57.40;2.50;;;;;;;;;;5074675;28;20458;-68
2023/04/30 00:46:41;;;;;;;57.13;2.20;;;;;;;;;;5074503;28;20447;-68
2023/04/30 00:49:09;;;;;;;57.47;2.50;;;;;;;;;;5074320;28;20467;-68
2023/04/30 00:51:37;;;;;;;57.37;2.23;;;;;;;;;;5074246;28;20947;-67
2023/04/30 00:54:04;;;;;;;57.67;2.33;;;;;;;;;;5074142;28;20451;-67
2023/04/30 00:56:32;;;;;;;57.37;2.50;;;;;;;;;;5074123;28;20447;-68
2023/04/30 00:59:00;;;;;;;57.90;2.60;;;;;;;;;;5074064;28;20493;-68
2023/04/30 01:01:28;;;;;;;57.70;2.80;;;;;;;;;;5074398;28;20455;-68
2023/04/30 01:03:56;;;;;;;57.30;2.37;;;;;;;;;;5074203;28;20447;-68
2023/04/30 01:06:24;;;;;;;57.30;2.40;;;;;;;;;;5074095;28;20451;-68
2023/04/30 01:08:51;;;;;;;57.13;2.30;;;;;;;;;;5073548;28;20459;-68
2023/04/30 01:11:26;;;;;;;57.60;3.13;;;;;;;;;;5073971;28;20448;-67
2023/04/30 01:13:59;;;;;;;57.80;2.60;;;;;;;;;;5072393;28;20534;-68
2023/04/30 01:16:28;;;;;;;57.13;2.40;;;;;;;;;;5073702;28;20455;-68
2023/04/30 01:18:58;;;;;;;57.17;2.20;;;;;;;;;;5073286;28;20490;-68
2023/04/30 01:21:25;;;;;;;57.57;3.07;;;;;;;;;;5073935;28;20447;-68
2023/04/30 01:24:06;;;;;;;58.03;2.77;;;;;;;;;;5073572;28;20459;-68
2023/04/30 01:26:41;;;;;;;57.27;2.10;;;;;;;;;;5073650;28;20462;-68
2023/04/30 01:29:11;;;;;;;57.13;2.07;;;;;;;;;;5073020;28;20470;-68
2023/04/30 01:31:38;;;;;;;57.23;2.40;;;;;;;;;;5073289;28;20507;-68
2023/04/30 01:34:05;;;;;;;57.90;2.47;;;;;;;;;;5073401;28;20473;-68
2023/04/30 01:36:46;;;;;;;57.13;2.40;;;;;;;;;;5073433;28;20454;-68
2023/04/30 01:39:27;;;;;;;57.80;2.60;;;;;;;;;;5073045;28;20493;-68
2023/04/30 01:41:58;;;;;;;57.57;2.70;;;;;;;;;;5073377;28;20447;-68
2023/04/30 01:44:37;;;;;;;57.07;2.03;;;;;;;;;;5073313;28;20792;-68
2023/04/30 01:47:06;;;;;;;57.23;2.10;;;;;;;;;;5072839;28;20447;-68
2023/04/30 01:49:39;;;;;;;57.27;2.27;;;;;;;;;;5072699;28;20465;-68
2023/04/30 01:52:10;;;;;;;57.70;2.90;;;;;;;;;;5073211;28;20448;-67
2023/04/30 01:54:46;;;;;;;56.83;2.27;;;;;;;;;;5072903;28;20443;-68
2023/04/30 01:57:22;;;;;;;57.13;2.40;;;;;;;;;;5073035;28;20496;-68
2023/04/30 01:59:50;;;;;;;59.00;3.30;;;;;;;;;;5072451;28;20483;-67
2023/04/30 02:02:17;;;;;;;57.17;2.80;;;;;;;;;;5072783;28;20459;-68
2023/04/30 02:04:45;;;;;;;57.07;2.60;;;;;;;;;;5072944;28;20444;-68
2023/04/30 02:07:13;;;;;;;57.20;2.13;;;;;;;;;;5072878;28;20454;-68
2023/04/30 02:09:40;;;;;;;57.37;2.43;;;;;;;;;;5072242;28;20463;-67
2023/04/30 02:12:07;;;;;;;56.97;2.17;;;;;;;;;;5072719;28;20838;-68
2023/04/30 02:14:34;;;;;;;57.13;2.30;;;;;;;;;;5072631;28;20444;-68
2023/04/30 02:17:03;;;;;;;58.30;2.60;;;;;;;;;;5072477;28;20970;-68
2023/04/30 02:19:30;;;;;;;57.40;2.30;;;;;;;;;;5072131;28;20498;-68
2023/04/30 02:21:57;;;;;;;57.20;2.73;;;;;;;;;;5072806;28;20451;-68
2023/04/30 02:24:24;;;;;;;57.37;2.80;;;;;;;;;;5072234;28;20459;-68
2023/04/30 02:26:52;;;;;;;57.27;2.40;;;;;;;;;;5072510;28;20447;-68
2023/04/30 02:29:19;;;;;;;57.40;2.50;;;;;;;;;;5071831;28;20459;-68
2023/04/30 02:31:46;;;;;;;57.60;3.43;;;;;;;;;;5072455;28;20455;-68
2023/04/30 02:34:14;;;;;;;57.70;2.50;;;;;;;;;;5072408;28;20443;-68
2023/04/30 02:36:41;;;;;;;58.10;3.23;;;;;;;;;;5072247;28;20447;-68
2023/04/30 02:39:08;;;;;;;57.20;2.87;;;;;;;;;;5072155;28;21021;-68
2023/04/30 02:41:36;;;;;;;57.17;2.50;;;;;;;;;;5072099;28;20447;-68
2023/04/30 02:44:03;;;;;;;57.23;2.63;;;;;;;;;;5072326;28;20470;-68
2023/04/30 02:46:30;;;;;;;57.10;2.20;;;;;;;;;;5072872;28;20454;-67
2023/04/30 02:48:57;;;;;;;60.90;4.07;;;;;;;;;;5071979;28;20447;-67
2023/04/30 02:51:27;;;;;;;57.23;2.50;;;;;;;;;;5072254;28;20462;-68
2023/04/30 02:53:54;;;;;;;57.47;2.80;;;;;;;;;;5072151;28;20455;-68
2023/04/30 02:56:21;;;;;;;57.50;3.10;;;;;;;;;;5071887;28;20943;-68
2023/04/30 02:58:48;;;;;;;58.00;3.30;;;;;;;;;;5070862;28;20502;-68
2023/04/30 03:01:15;;;;;;;57.50;2.97;;;;;;;;;;5072030;28;20447;-68
2023/04/30 03:03:42;;;;;;;57.90;2.53;;;;;;;;;;5071953;28;20493;-68
2023/04/30 03:06:09;;;;;;;57.60;3.00;;;;;;;;;;5071880;28;20443;-68
2023/04/30 03:08:38;;;;;;;57.13;2.43;;;;;;;;;;5071482;28;20962;-67
2023/04/30 03:11:05;;;;;;;57.10;2.37;;;;;;;;;;5071507;28;20471;-68
2023/04/30 03:13:32;;;;;;;57.50;2.70;;;;;;;;;;5072114;28;20541;-68
2023/04/30 03:15:59;;;;;;;57.83;2.80;;;;;;;;;;5072065;28;20447;-68
2023/04/30 03:18:26;;;;;;;57.30;2.80;;;;;;;;;;5071620;28;20485;-68
2023/04/30 03:20:53;;;;;;;57.30;2.40;;;;;;;;;;5071421;28;20993;-68
2023/04/30 03:23:20;;;;;;;57.30;2.37;;;;;;;;;;5071551;28;20446;-68
2023/04/30 03:25:49;;;;;;;57.20;2.40;;;;;;;;;;5071503;28;20454;-68
2023/04/30 03:28:16;;;;;;;57.03;2.20;;;;;;;;;;5071500;28;20457;-68
2023/04/30 03:30:43;;;;;;;57.80;3.60;;;;;;;;;;5071278;28;20983;-68
2023/04/30 03:33:10;;;;;;;57.23;2.60;;;;;;;;;;5071651;28;20450;-67
2023/04/30 03:35:37;;;;;;;57.20;2.50;;;;;;;;;;5071549;28;20454;-68
2023/04/30 03:38:04;;;;;;;57.60;3.60;;;;;;;;;;5071481;28;20443;-68
2023/04/30 03:40:31;;;;;;;57.23;2.47;;;;;;;;;;5071114;28;20470;-68
2023/04/30 03:43:00;;;;;;;59.63;3.00;;;;;;;;;;5071420;28;20457;-68
2023/04/30 03:45:27;;;;;;;57.20;2.37;;;;;;;;;;5071492;28;20445;-68
2023/04/30 03:47:54;;;;;;;57.00;2.10;;;;;;;;;;5071750;28;20458;-68
2023/04/30 03:50:21;;;;;;;57.07;2.30;;;;;;;;;;5071179;28;20465;-68
2023/04/30 03:52:48;;;;;;;57.00;2.07;;;;;;;;;;5071261;28;20458;-68
2023/04/30 03:55:16;;;;;;;56.93;2.40;;;;;;;;;;5071445;28;20507;-68
2023/04/30 03:57:43;;;;;;;57.47;2.47;;;;;;;;;;5071273;28;20505;-68
2023/04/30 04:00:12;;;;;;;57.57;3.00;;;;;;;;;;5070840;28;20483;-68
2023/04/30 04:02:39;;;;;;;57.10;2.73;;;;;;;;;;5071296;28;20439;-68
2023/04/30 04:05:07;;;;;;;58.73;2.80;;;;;;;;;;5071800;28;20466;-68
2023/04/30 04:07:34;;;;;;;57.30;2.50;;;;;;;;;;5071080;28;20454;-68
2023/04/30 04:10:01;;;;;;;58.00;2.70;;;;;;;;;;5072209;28;20467;-68
2023/04/30 04:12:28;;;;;;;57.07;2.30;;;;;;;;;;5074961;28;20453;-68
2023/04/30 04:14:55;;;;;;;57.80;2.90;;;;;;;;;;5074773;28;20450;-67
2023/04/30 04:17:23;;;;;;;57.17;2.30;;;;;;;;;;5074765;28;20450;-68
2023/04/30 04:19:51;;;;;;;57.17;2.10;;;;;;;;;;5074151;28;20489;-68
2023/04/30 04:22:18;;;;;;;57.07;2.50;;;;;;;;;;5074880;28;20478;-68
2023/04/30 04:24:46;;;;;;;57.10;2.30;;;;;;;;;;5074538;28;20455;-68
2023/04/30 04:27:13;;;;;;;57.40;2.50;;;;;;;;;;5074721;28;20840;-68
2023/04/30 04:29:41;;;;;;;57.17;2.30;;;;;;;;;;5074045;28;20467;-68
2023/04/30 04:32:09;;;;;;;57.10;2.20;;;;;;;;;;5074441;28;20965;-68
2023/04/30 04:34:38;;;;;;;57.50;3.30;;;;;;;;;;5074270;28;20451;-68
2023/04/30 04:37:05;;;;;;;57.50;2.67;;;;;;;;;;5074583;28;20490;-68
2023/04/30 04:39:32;;;;;;;57.03;2.07;;;;;;;;;;5073985;28;20540;-67
2023/04/30 04:42:00;;;;;;;60.20;5.80;;;;;;;;;;5074513;28;20676;-68
2023/04/30 04:44:27;;;;;;;57.90;3.00;;;;;;;;;;5074317;28;20505;-68
2023/04/30 04:46:55;;;;;;;57.70;3.13;;;;;;;;;;5074117;28;20452;-68
2023/04/30 04:49:22;;;;;;;56.87;2.93;;;;;;;;;;5074127;28;20498;-68
2023/04/30 04:51:51;;;;;;;56.97;2.40;;;;;;;;;;5074274;28;20443;-68
2023/04/30 04:54:18;;;;;;;56.87;2.20;;;;;;;;;;5074059;28;20920;-68
2023/04/30 04:56:45;;;;;;;57.07;2.40;;;;;;;;;;5074061;28;20443;-68
2023/04/30 04:59:13;;;;;;;56.97;2.40;;;;;;;;;;5073554;28;20492;-68
2023/04/30 05:01:40;;;;;;;57.17;2.30;;;;;;;;;;5073880;28;20443;-68
2023/04/30 05:04:08;;;;;;;57.60;2.63;;;;;;;;;;5074062;28;20970;-68
2023/04/30 05:06:35;;;;;;;57.07;2.60;;;;;;;;;;5073974;28;20842;-68
2023/04/30 05:09:07;;;;;;;58.57;3.77;;;;;;;;;;5073544;28;20479;-68
2023/04/30 05:11:34;;;;;;;58.87;3.57;;;;;;;;;;5074082;28;20455;-69
2023/04/30 05:14:01;;;;;;;57.87;3.37;;;;;;;;;;5073632;28;20454;-69
2023/04/30 05:16:29;;;;;;;57.37;2.40;;;;;;;;;;5073813;28;20454;-69
2023/04/30 05:18:56;;;;;;;58.37;4.60;;;;;;;;;;5073096;28;20948;-69
2023/04/30 05:21:24;;;;;;;58.27;3.80;;;;;;;;;;5072738;28;20458;-69
2023/04/30 05:23:51;;;;;;;58.27;3.20;;;;;;;;;;5073492;28;20477;-69
2023/04/30 05:26:22;;;;;;;57.13;2.40;;;;;;;;;;5073506;28;20448;-69
2023/04/30 05:28:49;;;;;;;57.33;2.60;;;;;;;;;;5072982;28;20549;-69
2023/04/30 05:31:16;;;;;;;57.47;2.60;;;;;;;;;;5073505;28;20527;-69
2023/04/30 05:33:43;;;;;;;57.13;2.40;;;;;;;;;;5073530;28;20447;-69
2023/04/30 05:36:10;;;;;;;57.03;2.17;;;;;;;;;;5073098;28;20959;-69
2023/04/30 05:38:37;;;;;;;57.07;2.50;;;;;;;;;;5072882;28;20447;-69
2023/04/30 05:41:05;;;;;;;57.83;3.13;;;;;;;;;;5072908;28;20487;-69
2023/04/30 05:43:33;;;;;;;57.07;2.30;;;;;;;;;;5073283;28;20448;-69
2023/04/30 05:46:00;;;;;;;57.00;2.27;;;;;;;;;;5073192;28;20482;-69
2023/04/30 05:48:27;;;;;;;57.03;2.30;;;;;;;;;;5073347;28;20443;-69
2023/04/30 05:50:54;;;;;;;57.50;2.50;;;;;;;;;;5072810;28;20560;-69
2023/04/30 05:53:22;;;;;;;57.10;2.40;;;;;;;;;;5072891;28;20454;-69
2023/04/30 05:55:49;;;;;;;58.67;2.73;;;;;;;;;;5073214;28;20453;-69
2023/04/30 05:58:16;;;;;;;57.27;2.70;;;;;;;;;;5073088;28;20447;-69
2023/04/30 06:00:44;;;;;;;57.10;2.30;;;;;;;;;;5072513;28;20487;-69
2023/04/30 06:03:11;;;;;;;60.57;4.03;;;;;;;;;;5072788;28;20799;-69
2023/04/30 06:05:40;;;;;;;57.90;2.90;;;;;;;;;;5072734;28;20444;-69
2023/04/30 06:08:07;;;;;;;57.13;2.60;;;;;;;;;;5072437;28;20490;-69
2023/04/30 06:10:34;;;;;;;57.07;2.10;;;;;;;;;;5072485;28;20459;-69
2023/04/30 06:13:01;;;;;;;56.97;2.23;;;;;;;;;;5072753;28;20834;-69
2023/04/30 06:15:28;;;;;;;57.57;3.00;;;;;;;;;;5072756;28;20440;-69
2023/04/30 06:17:57;;;;;;;57.30;2.60;;;;;;;;;;5072319;28;20936;-69
2023/04/30 06:20:25;;;;;;;57.07;2.33;;;;;;;;;;5071954;28;20487;-69
2023/04/30 06:22:53;;;;;;;58.47;2.93;;;;;;;;;;5072233;28;20447;-69
2023/04/30 06:25:20;;;;;;;57.07;2.20;;;;;;;;;;5072211;28;20466;-69
2023/04/30 06:27:47;;;;;;;56.93;2.50;;;;;;;;;;5072724;28;20838;-69
2023/04/30 06:30:14;;;;;;;57.07;2.30;;;;;;;;;;5071896;28;20471;-69
2023/04/30 06:32:41;;;;;;;57.30;3.07;;;;;;;;;;5072074;28;20451;-69
2023/04/30 06:35:10;;;;;;;57.00;2.30;;;;;;;;;;5072192;28;20542;-69
2023/04/30 06:37:37;;;;;;;57.40;2.70;;;;;;;;;;5072316;28;20450;-69
2023/04/30 06:40:05;;;;;;;57.20;2.43;;;;;;;;;;5071870;28;20529;-69
2023/04/30 06:42:34;;;;;;;57.17;2.17;;;;;;;;;;5072217;28;20484;-69
2023/04/30 06:45:01;;;;;;;58.10;2.63;;;;;;;;;;5072047;28;20448;-69
2023/04/30 06:47:28;;;;;;;57.70;2.57;;;;;;;;;;5071984;28;20475;-69
2023/04/30 06:49:55;;;;;;;56.80;2.20;;;;;;;;;;5071404;28;20463;-69
2023/04/30 06:52:24;;;;;;;57.97;4.07;;;;;;;;;;5071954;28;20457;-69
2023/04/30 06:54:51;;;;;;;57.30;2.30;;;;;;;;;;5071892;28;20483;-69
2023/04/30 06:57:18;;;;;;;57.17;2.87;;;;;;;;;;5072261;28;20477;-69
2023/04/30 06:59:45;;;;;;;57.97;3.00;;;;;;;;;;5071444;28;20486;-69
2023/04/30 07:02:12;;;;;;;57.17;2.07;;;;;;;;;;5071760;28;20451;-69
2023/04/30 07:04:39;;;;;;;56.87;2.00;;;;;;;;;;5071977;28;20815;-69
2023/04/30 07:07:07;;;;;;;58.37;3.60;;;;;;;;;;5071742;28;20454;-69
2023/04/30 07:09:35;;;;;;;57.20;2.70;;;;;;;;;;5071523;28;20478;-69
2023/04/30 07:12:02;;;;;;;58.37;3.80;;;;;;;;;;5071826;28;20455;-69
2023/04/30 07:14:30;;;;;;;57.20;2.47;;;;;;;;;;5071690;28;20447;-69
2023/04/30 07:16:57;;;;;;;57.07;2.20;;;;;;;;;;5071587;28;20448;-69
2023/04/30 07:19:25;;;;;;;56.97;2.30;;;;;;;;;;5071068;28;20471;-69
2023/04/30 07:21:52;;;;;;;56.77;2.10;;;;;;;;;;5071701;28;20458;-69
2023/04/30 07:24:19;;;;;;;56.77;2.00;;;;;;;;;;5071601;28;20459;-69
2023/04/30 07:26:48;;;;;;;57.30;2.73;;;;;;;;;;5071644;28;20821;-69
2023/04/30 07:29:15;;;;;;;57.50;2.90;;;;;;;;;;5071184;28;20493;-69
2023/04/30 07:31:42;;;;;;;56.67;2.10;;;;;;;;;;5071879;28;20447;-69
2023/04/30 07:34:09;;;;;;;57.30;2.73;;;;;;;;;;5071438;28;20940;-69
2023/04/30 07:36:37;;;;;;;57.87;4.10;;;;;;;;;;5071627;28;20470;-69
2023/04/30 07:39:05;;;;;;;56.93;2.40;;;;;;;;;;5071204;28;20542;-69
2023/04/30 07:41:32;;;;;;;61.63;4.17;;;;;;;;;;5071403;28;20483;-69
2023/04/30 07:44:01;;;;;;;57.40;2.73;;;;;;;;;;5071292;28;20971;-69
2023/04/30 07:46:28;;;;;;;57.50;2.63;;;;;;;;;;5075526;28;20795;-69
2023/04/30 07:48:55;;;;;;;57.50;3.27;;;;;;;;;;5075095;28;20454;-69
2023/04/30 07:51:22;;;;;;;57.20;2.50;;;;;;;;;;5075374;28;20795;-69
2023/04/30 07:53:51;;;;;;;56.87;2.30;;;;;;;;;;5075458;28;20447;-69
2023/04/30 07:56:19;;;;;;;57.10;2.60;;;;;;;;;;5075430;28;20454;-69
2023/04/30 07:58:46;;;;;;;57.27;2.30;;;;;;;;;;5074610;28;20516;-69
2023/04/30 08:01:14;;;;;;;57.10;2.53;;;;;;;;;;5075449;28;20794;-69
2023/04/30 08:03:41;;;;;;;57.00;2.17;;;;;;;;;;5075293;28;20443;-69
2023/04/30 08:06:08;;;;;;;56.90;2.30;;;;;;;;;;5075174;28;20453;-69
2023/04/30 08:08:36;;;;;;;56.87;2.20;;;;;;;;;;5074644;28;20469;-68
2023/04/30 08:11:03;;;;;;;57.10;2.87;;;;;;;;;;5074860;28;20467;-69
2023/04/30 08:13:30;;;;;;;57.20;2.57;;;;;;;;;;5075076;28;20533;-68
2023/04/30 08:15:57;;;;;;;57.37;2.40;;;;;;;;;;5074867;28;20496;-69
2023/04/30 08:18:26;;;;;;;56.77;1.97;;;;;;;;;;5074766;28;20821;-69
2023/04/30 08:20:53;;;;;;;57.03;2.70;;;;;;;;;;5074567;28;20846;-69
2023/04/30 08:23:20;;;;;;;56.83;2.27;;;;;;;;;;5074453;28;20935;-69
2023/04/30 08:25:47;;;;;;;57.03;2.10;;;;;;;;;;5074565;28;20451;-69
2023/04/30 08:28:15;;;;;;;56.67;2.17;;;;;;;;;;5074643;28;20447;-69
2023/04/30 08:30:42;;;;;;;56.80;2.10;;;;;;;;;;5074309;28;20505;-69
2023/04/30 08:33:09;;;;;;;57.00;2.03;;;;;;;;;;5074622;28;20514;-69
2023/04/30 08:35:38;;;;;;;57.20;2.23;;;;;;;;;;5074590;28;20503;-69
2023/04/30 08:38:05;;;;;;;56.90;2.20;;;;;;;;;;5074180;28;20451;-69
2023/04/30 08:40:35;;;;;;;57.27;2.97;;;;;;;;;;5074157;28;20491;-69
2023/04/30 08:43:05;;;;;;;56.90;2.30;;;;;;;;;;5074226;28;20932;-69
2023/04/30 08:45:33;;;;;;;57.60;2.20;;;;;;;;;;5074389;28;20451;-69
2023/04/30 08:48:00;;;;;;;56.70;2.00;;;;;;;;;;5074021;28;20451;-69
2023/04/30 08:50:28;;;;;;;56.80;2.10;;;;;;;;;;5073768;28;21020;-69
2023/04/30 08:52:56;;;;;;;56.77;2.10;;;;;;;;;;5073873;28;20447;-69
2023/04/30 08:55:25;;;;;;;56.93;2.10;;;;;;;;;;5073887;28;20454;-69
2023/04/30 08:57:52;;;;;;;56.80;2.50;;;;;;;;;;5074148;28;20934;-69
2023/04/30 09:00:19;;;;;;;57.07;2.43;;;;;;;;;;5073578;28;20495;-69
2023/04/30 09:02:47;;;;;;;57.10;2.10;;;;;;;;;;5073880;28;20443;-69
2023/04/30 09:05:15;;;;;;;57.00;2.30;;;;;;;;;;5073824;28;20443;-69
2023/04/30 09:07:43;;;;;;;56.90;2.20;;;;;;;;;;5073955;28;20820;-69
2023/04/30 09:10:16;;;;;;;56.80;2.00;;;;;;;;;;5073537;28;20542;-69
2023/04/30 09:12:44;;;;;;;56.90;2.40;;;;;;;;;;5073817;28;20447;-69
2023/04/30 09:15:12;;;;;;;56.80;2.07;;;;;;;;;;5073679;28;20459;-69
2023/04/30 09:17:39;;;;;;;56.67;1.90;;;;;;;;;;5073530;28;20485;-69
2023/04/30 09:20:08;;;;;;;56.97;2.17;;;;;;;;;;5073234;28;20475;-69
2023/04/30 09:22:35;;;;;;;56.87;2.10;;;;;;;;;;5073711;28;20517;-69
2023/04/30 09:25:02;;;;;;;57.10;2.10;;;;;;;;;;5073464;28;20459;-69
2023/04/30 09:27:31;;;;;;;56.90;2.20;;;;;;;;;;5073513;28;20538;-69
2023/04/30 09:29:58;;;;;;;56.87;2.23;;;;;;;;;;5073086;28;20996;-69
2023/04/30 09:32:25;;;;;;;57.50;2.53;;;;;;;;;;5073130;28;20447;-69
2023/04/30 09:34:52;;;;;;;57.20;2.30;;;;;;;;;;5073249;28;20456;-69
2023/04/30 09:37:19;;;;;;;57.03;2.20;;;;;;;;;;5073416;28;20450;-69
2023/04/30 09:39:48;;;;;;;56.97;2.70;;;;;;;;;;5072756;28;20471;-69
2023/04/30 09:42:15;;;;;;;56.97;2.20;;;;;;;;;;5073029;28;20490;-69
2023/04/30 09:44:43;;;;;;;58.67;3.43;;;;;;;;;;5073084;28;20447;-69
2023/04/30 09:47:15;;;;;;;56.80;1.90;;;;;;;;;;5072861;28;20447;-69
2023/04/30 09:49:43;;;;;;;57.00;2.40;;;;;;;;;;5072625;28;21002;-69
2023/04/30 09:52:11;;;;;;;57.10;2.33;;;;;;;;;;5073161;28;20869;-69
2023/04/30 09:54:39;;;;;;;56.77;2.00;;;;;;;;;;5073106;28;20451;-69
2023/04/30 09:57:09;;;;;;;57.10;2.20;;;;;;;;;;5072776;28;20451;-69
2023/04/30 09:59:38;;;;;;;56.87;2.30;;;;;;;;;;5072343;28;21002;-69
2023/04/30 10:02:07;;;;;;;56.60;2.00;;;;;;;;;;5072783;28;20483;-69
2023/04/30 10:04:35;;;;;;;56.70;2.30;;;;;;;;;;5072823;28;20451;-69
2023/04/30 10:07:03;;;;;;;57.10;2.70;;;;;;;;;;5072154;28;20468;-69
2023/04/30 10:09:32;;;;;;;56.83;2.40;;;;;;;;;;5072162;28;20474;-69
2023/04/30 10:12:00;;;;;;;56.90;2.33;;;;;;;;;;5072403;28;20439;-69
2023/04/30 10:14:33;;;;;;;56.97;2.30;;;;;;;;;;5072572;28;20451;-69
2023/04/30 10:17:03;;;;;;;56.90;2.23;;;;;;;;;;5072632;28;20811;-69
2023/04/30 10:19:34;;;;;;;57.30;2.60;;;;;;;;;;5072080;28;20890;-69
2023/04/30 10:22:02;;;;;;;56.70;2.00;;;;;;;;;;5072301;28;20479;-69
2023/04/30 10:24:29;;;;;;;58.33;2.87;;;;;;;;;;5072063;28;20952;-69
2023/04/30 10:26:57;;;;;;;56.77;2.40;;;;;;;;;;5072444;28;20948;-69
2023/04/30 10:29:24;;;;;;;56.87;2.20;;;;;;;;;;5071976;28;20808;-69
2023/04/30 10:31:52;;;;;;;57.00;2.27;;;;;;;;;;5072249;28;20444;-69
2023/04/30 10:34:23;;;;;;;56.67;1.97;;;;;;;;;;5072222;28;20453;-69
2023/04/30 10:36:55;;;;;;;56.97;2.27;;;;;;;;;;5072136;28;20448;-69
2023/04/30 10:39:23;;;;;;;56.87;2.17;;;;;;;;;;5071653;28;20475;-69
2023/04/30 10:41:50;;;;;;;57.00;2.10;;;;;;;;;;5072393;28;20575;-69
2023/04/30 10:44:22;;;;;;;57.17;2.43;;;;;;;;;;5072107;28;20454;-69
2023/04/30 10:46:50;;;;;;;57.00;2.30;;;;;;;;;;5072087;28;20443;-69
2023/04/30 10:49:25;;;;;;;56.77;2.17;;;;;;;;;;5071589;28;20467;-69
2023/04/30 10:51:55;;;;;;;56.83;2.20;;;;;;;;;;5071969;28;20443;-69
2023/04/30 10:54:24;;;;;;;56.97;2.80;;;;;;;;;;5072239;28;20864;-69
2023/04/30 10:56:52;;;;;;;57.93;2.20;;;;;;;;;;5071994;28;20455;-69
2023/04/30 10:59:19;;;;;;;56.80;2.00;;;;;;;;;;5071514;28;20474;-69
2023/04/30 11:01:55;;;;;;;56.77;2.00;;;;;;;;;;5071812;28;20486;-69
2023/04/30 11:04:23;;;;;;;57.60;2.90;;;;;;;;;;5072049;28;20455;-69
2023/04/30 11:06:50;;;;;;;56.90;2.30;;;;;;;;;;5071708;28;20458;-69
2023/04/30 11:09:19;;;;;;;57.00;2.60;;;;;;;;;;5071464;28;20474;-69
2023/04/30 11:11:49;;;;;;;56.90;2.00;;;;;;;;;;5071779;28;20443;-69
2023/04/30 11:14:21;;;;;;;56.93;2.13;;;;;;;;;;5071664;28;21011;-69
2023/04/30 11:16:50;;;;;;;56.77;2.10;;;;;;;;;;5071955;28;20447;-69
2023/04/30 11:19:17;;;;;;;56.67;2.00;;;;;;;;;;5072055;28;20521;-69
2023/04/30 11:22:11;;;;;;;56.93;2.00;;;;;;;;;;5075882;28;21045;-69
2023/04/30 11:24:52;;;;;;;56.87;2.03;;;;;;;;;;5075681;28;20636;-69
2023/04/30 11:27:23;;;;;;;56.70;2.03;;;;;;;;;;5075936;28;20443;-69
2023/04/30 11:29:51;;;;;;;57.00;2.40;;;;;;;;;;5075365;28;20463;-69
2023/04/30 11:32:18;;;;;;;57.23;2.40;;;;;;;;;;5075535;28;20447;-69
2023/04/30 11:34:46;;;;;;;56.90;2.37;;;;;;;;;;5075717;28;20439;-69
2023/04/30 11:37:14;;;;;;;56.97;2.17;;;;;;;;;;5076007;28;20447;-70
2023/04/30 11:39:42;;;;;;;56.97;2.30;;;;;;;;;;5075086;28;20467;-70
2023/04/30 11:42:11;;;;;;;57.30;3.03;;;;;;;;;;5075567;28;20518;-70
2023/04/30 11:44:38;;;;;;;56.80;2.30;;;;;;;;;;5075333;28;20936;-70
2023/04/30 11:47:06;;;;;;;58.33;3.20;;;;;;;;;;5075441;28;20455;-70
2023/04/30 11:49:33;;;;;;;57.80;3.27;;;;;;;;;;5074931;28;20475;-69
2023/04/30 11:52:00;;;;;;;56.80;2.13;;;;;;;;;;5075205;28;20443;-70
2023/04/30 11:54:27;;;;;;;56.87;2.20;;;;;;;;;;5075403;28;20455;-70
2023/04/30 11:57:00;;;;;;;56.80;2.20;;;;;;;;;;5075103;28;20928;-70
2023/04/30 11:59:29;;;;;;;57.70;3.17;;;;;;;;;;5075098;28;20475;-70
2023/04/30 12:01:57;;;;;;;56.77;2.23;;;;;;;;;;5075112;28;20485;-70
2023/04/30 12:04:24;;;;;;;56.87;2.33;;;;;;;;;;5074851;28;20444;-70
2023/04/30 12:06:51;;;;;;;56.97;2.60;;;;;;;;;;5075147;28;20447;-70
2023/04/30 12:09:18;;;;;;;57.00;2.17;;;;;;;;;;5074740;28;20467;-70
2023/04/30 12:11:48;;;;;;;56.70;1.93;;;;;;;;;;5074824;28;20454;-70
2023/04/30 12:14:15;;;;;;;57.20;2.77;;;;;;;;;;5074935;28;20512;-70
2023/04/30 12:16:47;;;;;;;56.67;2.03;;;;;;;;;;5074796;28;20944;-70
2023/04/30 12:19:15;;;;;;;57.57;2.40;;;;;;;;;;5074289;28;20562;-70
2023/04/30 12:21:45;;;;;;;57.27;3.00;;;;;;;;;;5074758;28;20567;-70
2023/04/30 12:24:12;;;;;;;56.80;2.20;;;;;;;;;;5074957;28;20454;-70
2023/04/30 12:26:39;;;;;;;57.50;2.87;;;;;;;;;;5074707;28;20500;-70
2023/04/30 12:29:09;;;;;;;57.07;2.57;;;;;;;;;;5074186;28;20466;-70
2023/04/30 12:31:37;;;;;;;56.80;2.10;;;;;;;;;;5074012;28;20447;-70
2023/04/30 12:34:06;;;;;;;57.07;2.53;;;;;;;;;;5074684;28;20459;-69
2023/04/30 12:36:35;;;;;;;56.77;2.50;;;;;;;;;;5074722;28;20447;-70
2023/04/30 12:39:03;;;;;;;56.93;2.30;;;;;;;;;;5074072;28;21000;-70
2023/04/30 12:41:31;;;;;;;56.53;2.10;;;;;;;;;;5074200;28;20485;-70
2023/04/30 12:44:13;;;;;;;56.60;2.40;;;;;;;;;;5074282;28;20846;-70
2023/04/30 12:46:41;;;;;;;56.67;2.10;;;;;;;;;;5074741;28;20454;-69
2023/04/30 12:49:10;;;;;;;57.20;2.80;;;;;;;;;;5073945;28;20459;-70
2023/04/30 12:51:39;;;;;;;57.23;2.60;;;;;;;;;;5074311;28;20439;-70
2023/04/30 12:54:06;;;;;;;56.87;2.40;;;;;;;;;;5074170;28;20496;-70
2023/04/30 12:56:33;;;;;;;57.30;2.50;;;;;;;;;;5073956;28;20475;-69
2023/04/30 12:59:00;;;;;;;57.20;2.67;;;;;;;;;;5073944;28;20482;-70
2023/04/30 13:01:27;;;;;;;56.80;2.20;;;;;;;;;;5073871;28;20561;-70
2023/04/30 13:03:54;;;;;;;56.23;2.10;;;;;;;;;;5074109;28;20450;-70
2023/04/30 13:06:23;;;;;;;56.60;1.80;;;;;;;;;;5073828;28;20451;-70
2023/04/30 13:08:50;;;;;;;57.40;2.27;;;;;;;;;;5073739;28;20449;-69
2023/04/30 13:11:17;;;;;;;57.93;2.37;;;;;;;;;;5073709;28;20501;-69
2023/04/30 13:13:44;;;;;;;56.37;1.90;;;;;;;;;;5073891;28;20458;-70
2023/04/30 13:16:11;;;;;;;56.97;2.40;;;;;;;;;;5073756;28;20443;-70
2023/04/30 13:18:39;;;;;;;56.87;2.00;;;;;;;;;;5073374;28;20454;-70
2023/04/30 13:21:06;;;;;;;56.57;2.10;;;;;;;;;;5073560;28;20472;-70
2023/04/30 13:23:35;;;;;;;56.47;2.03;;;;;;;;;;5073465;28;20937;-70
2023/04/30 13:26:02;;;;;;;56.47;1.90;;;;;;;;;;5073769;28;20452;-70
2023/04/30 13:28:29;;;;;;;57.60;2.80;;;;;;;;;;5073656;28;20439;-70
2023/04/30 13:30:56;;;;;;;56.80;2.10;;;;;;;;;;5073336;28;20821;-70
2023/04/30 13:33:23;;;;;;;58.37;2.20;;;;;;;;;;5073382;28;20467;-70
2023/04/30 13:35:51;;;;;;;56.60;1.80;;;;;;;;;;5073446;28;20447;-70
2023/04/30 13:38:18;;;;;;;56.90;2.30;;;;;;;;;;5073045;28;20443;-70
2023/04/30 13:40:46;;;;;;;56.70;2.40;;;;;;;;;;5072802;28;21009;-70
2023/04/30 13:43:13;;;;;;;56.40;1.90;;;;;;;;;;5072419;28;20487;-70
2023/04/30 13:45:40;;;;;;;56.63;2.10;;;;;;;;;;5073117;28;20824;-67
2023/04/30 13:48:07;;;;;;;56.73;2.40;;;;;;;;;;5073003;28;20451;-67
2023/04/30 13:50:35;;;;;;;57.00;2.00;;;;;;;;;;5072491;28;20820;-67
2023/04/30 13:53:02;;;;;;;57.07;2.67;;;;;;;;;;5072815;28;21035;-69
2023/04/30 13:55:29;;;;;;;58.50;2.10;;;;;;;;;;5072969;28;20450;-67
2023/04/30 13:57:59;;;;;;;57.07;2.00;;;;;;;;;;5072817;28;20547;-67
2023/04/30 14:00:26;;;;;;;62.17;2.23;;;;;;;;;;5072507;28;20467;-70
2023/04/30 14:02:54;;;;;;;56.70;2.07;;;;;;;;;;5072699;28;20482;-70
2023/04/30 14:05:21;;;;;;;57.23;2.67;;;;;;;;;;5072557;28;20540;-70
2023/04/30 14:07:48;;;;;;;56.70;1.90;;;;;;;;;;5072904;28;20522;-70
2023/04/30 14:10:15;;;;;;;57.00;2.57;;;;;;;;;;5072262;28;20467;-69
2023/04/30 14:12:42;;;;;;;56.57;2.33;;;;;;;;;;5072594;28;20443;-68
2023/04/30 14:15:11;;;;;;;56.60;2.10;;;;;;;;;;5072466;28;20447;-70
2023/04/30 14:17:39;;;;;;;57.50;2.60;;;;;;;;;;5072563;28;20455;-68
2023/04/30 14:20:06;;;;;;;56.93;2.20;;;;;;;;;;5071897;28;20826;-68
2023/04/30 14:22:37;;;;;;;56.77;2.23;;;;;;;;;;5072403;28;20480;-68
2023/04/30 14:25:04;;;;;;;56.57;2.40;;;;;;;;;;5072261;28;20463;-68
2023/04/30 14:27:31;;;;;;;57.70;2.50;;;;;;;;;;5072404;28;20443;-68
2023/04/30 14:29:58;;;;;;;57.17;2.30;;;;;;;;;;5071793;28;20467;-68
2023/04/30 14:32:28;;;;;;;56.80;2.20;;;;;;;;;;5072111;28;20475;-68
2023/04/30 14:34:55;;;;;;;57.00;2.50;;;;;;;;;;5072292;28;20447;-68